Terminal Aerodrome Forecast
Issued by NWS Jackson, KY

Home | Current Version | Previous Version | Text Only | Print | Product List | Glossary On
Versions: 1 2 3 4 5 6 7 8 9 10 11 12 13 14 15 16 17 18 19 20
000
FTUS43 KJKL 170500
TAFLOZ
TAF
KLOZ 170527Z 1706/1806 26006KT 6SM -DZ OVC015
     FM170900 28005KT 6SM -DZ OVC008
     FM171200 28005KT 6SM -DZ OVC020
     FM171900 31005KT P6SM BKN030
     FM172300 VRB03KT P6SM SCT030 BKN100=

USA.gov is the U.S. government's official web portal to all federal, state and local government web resources and services.